Time;durP1;ratioP1;P1;durP2;ratioP2;P2;SDS_P1;SDS_P2;PMS_P1;PMS_P2;Temp;Humidity;BMP_temperature;BMP_pressure;BME280_temperature;BME280_humidity;BME280_pressure;Samples;Min_cycle;Max_cycle;Signal;HPM_P1;HPM_P2
2021/06/17 00:00:10;;;;;;;11.70;10.17;;;21.50;98.90;;;;;;4420224;32;20212;-61
2021/06/17 00:02:37;;;;;;;11.70;10.50;;;21.40;98.60;;;;;;4411743;32;20209;-61
2021/06/17 00:05:06;;;;;;;13.97;9.93;;;21.40;99.30;;;;;;4420311;32;20171;-61
2021/06/17 00:07:33;;;;;;;11.37;10.27;;;21.40;99.10;;;;;;4408282;32;20164;-61
2021/06/17 00:10:00;;;;;;;13.43;10.50;;;21.40;98.90;;;;;;4407136;32;20491;-61
2021/06/17 00:12:29;;;;;;;12.63;11.33;;;21.40;99.30;;;;;;4405954;32;20203;-62
2021/06/17 00:14:56;;;;;;;12.10;10.90;;;21.30;99.40;;;;;;4405656;32;20782;-62
2021/06/17 00:17:22;;;;;;;12.73;11.30;;;21.30;99.40;;;;;;4406566;32;20152;-62
2021/06/17 00:19:49;;;;;;;12.67;11.37;;;21.30;99.50;;;;;;4404952;32;20156;-62
2021/06/17 00:22:17;;;;;;;14.03;10.77;;;21.20;99.10;;;;;;4408272;32;20151;-62
2021/06/17 00:24:44;;;;;;;13.88;12.07;;;21.30;99.10;;;;;;4409543;32;20186;-60
2021/06/17 00:27:11;;;;;;;13.50;12.03;;;21.20;99.40;;;;;;4419018;32;20178;-62
2021/06/17 00:29:38;;;;;;;15.73;12.33;;;21.20;99.20;;;;;;4418939;32;20570;-62
2021/06/17 00:32:06;;;;;;;14.77;12.73;;;21.20;99.90;;;;;;4420317;32;20219;-61
2021/06/17 00:34:32;;;;;;;14.90;13.40;;;21.20;99.70;;;;;;4419802;32;20190;-61
2021/06/17 00:36:59;;;;;;;13.23;11.63;;;21.20;99.80;;;;;;4409585;32;20148;-61
2021/06/17 00:39:27;;;;;;;17.93;14.40;;;21.10;99.20;;;;;;4419349;32;20643;-62
2021/06/17 00:41:54;;;;;;;13.63;12.27;;;21.20;99.90;;;;;;4408357;32;20159;-64
2021/06/17 00:44:21;;;;;;;15.67;13.83;;;21.10;99.90;;;;;;4407998;32;20194;-63
2021/06/17 00:46:48;;;;;;;16.57;14.80;;;21.10;99.80;;;;;;4422844;32;20616;-62
2021/06/17 00:49:15;;;;;;;17.30;14.38;;;21.10;99.90;;;;;;4423153;32;20179;-62
2021/06/17 00:51:41;;;;;;;14.97;13.57;;;21.00;99.70;;;;;;4421700;32;20178;-62
2021/06/17 00:54:08;;;;;;;16.27;14.70;;;21.00;99.90;;;;;;4419819;32;20160;-62
2021/06/17 00:56:36;;;;;;;18.17;14.03;;;21.00;99.90;;;;;;4421880;32;20163;-63
2021/06/17 00:59:04;;;;;;;16.30;14.60;;;21.00;99.90;;;;;;4422396;32;20147;-62
2021/06/17 01:01:31;;;;;;;16.33;14.00;;;21.00;99.90;;;;;;4420611;32;20155;-62
2021/06/17 01:03:58;;;;;;;16.70;15.10;;;21.00;99.70;;;;;;4414353;32;20222;-61
2021/06/17 01:06:26;;;;;;;16.77;15.07;;;20.90;99.90;;;;;;4411074;32;20186;-63
2021/06/17 01:09:01;;;;;;;17.67;15.87;;;20.90;99.90;;;;;;4422817;32;20197;-62
2021/06/17 01:11:36;;;;;;;17.47;15.43;;;20.90;99.90;;;;;;4419566;32;20185;-61
2021/06/17 01:14:08;;;;;;;17.60;14.63;;;20.90;99.90;;;;;;4421377;32;20159;-63
2021/06/17 01:16:37;;;;;;;20.40;16.87;;;20.80;99.90;;;;;;4422472;32;20230;-61
2021/06/17 01:19:10;;;;;;;17.50;15.83;;;20.80;99.90;;;;;;4423986;32;20472;-61
2021/06/17 01:22:02;;;;;;;17.30;15.60;;;20.80;99.90;;;;;;4417499;32;20584;-61
2021/06/17 01:24:40;;;;;;;19.37;15.37;;;20.70;99.90;;;;;;4409095;32;20148;-62
2021/06/17 01:27:33;;;;;;;18.43;16.53;;;20.70;99.90;;;;;;4407259;32;20352;-62
2021/06/17 01:30:06;;;;;;;17.83;16.10;;;20.70;99.90;;;;;;4407966;32;20167;-62
2021/06/17 01:32:34;;;;;;;16.83;15.17;;;20.60;99.90;;;;;;4409139;32;20174;-60
2021/06/17 01:35:02;;;;;;;18.17;16.37;;;20.60;99.90;;;;;;4413309;32;20159;-61
2021/06/17 01:37:31;;;;;;;19.00;16.10;;;20.60;99.90;;;;;;4419972;32;20186;-62
2021/06/17 01:40:00;;;;;;;17.30;15.43;;;20.50;99.90;;;;;;4421552;32;20191;-61
2021/06/17 01:42:28;;;;;;;19.37;16.50;;;20.50;99.90;;;;;;4411703;32;20517;-61
2021/06/17 01:44:55;;;;;;;19.60;17.03;;;20.50;99.90;;;;;;4421648;32;20155;-63
2021/06/17 01:47:25;;;;;;;19.23;17.33;;;20.50;99.90;;;;;;4422366;32;20204;-61
2021/06/17 01:49:53;;;;;;;20.43;17.47;;;20.50;99.90;;;;;;4410940;32;20170;-61
2021/06/17 01:52:23;;;;;;;20.43;16.37;;;20.50;99.90;;;;;;4412192;32;20178;-60
2021/06/17 01:54:51;;;;;;;17.20;15.57;;;20.40;99.90;;;;;;4422324;32;20168;-61
2021/06/17 01:57:20;;;;;;;18.07;16.10;;;20.40;99.90;;;;;;4420107;32;20211;-62
2021/06/17 01:59:51;;;;;;;16.00;14.33;;;20.40;99.90;;;;;;4422339;32;20151;-61
2021/06/17 02:02:21;;;;;;;18.67;16.70;;;20.40;99.90;;;;;;4418549;32;20670;-61
2021/06/17 02:04:51;;;;;;;18.97;17.03;;;20.50;99.90;;;;;;4416540;32;20217;-62
2021/06/17 02:07:20;;;;;;;18.00;16.17;;;20.50;99.90;;;;;;4420685;32;20147;-62
2021/06/17 02:09:50;;;;;;;19.20;15.73;;;20.50;99.90;;;;;;4421886;32;20164;-62
2021/06/17 02:12:17;;;;;;;18.80;16.03;;;20.50;99.90;;;;;;4407294;32;20170;-62
2021/06/17 02:14:45;;;;;;;19.67;17.70;;;20.60;99.90;;;;;;4406828;32;20619;-62
2021/06/17 02:17:13;;;;;;;18.93;15.97;;;20.70;99.90;;;;;;4418617;32;20151;-61
2021/06/17 02:19:40;;;;;;;18.47;16.43;;;20.70;99.90;;;;;;4421508;32;20186;-64
2021/06/17 02:22:10;;;;;;;18.33;15.83;;;20.60;99.90;;;;;;4407377;32;20156;-63
2021/06/17 02:24:39;;;;;;;19.93;17.93;;;20.60;99.90;;;;;;4407798;32;20172;-61
2021/06/17 02:27:09;;;;;;;21.23;18.13;;;20.60;99.90;;;;;;4409566;32;20557;-62
2021/06/17 02:29:41;;;;;;;18.63;16.83;;;20.50;99.90;;;;;;4407519;32;20481;-62
2021/06/17 02:32:11;;;;;;;18.70;16.67;;;20.40;99.90;;;;;;4406989;32;20251;-63
2021/06/17 02:34:41;;;;;;;22.80;17.67;;;20.50;99.90;;;;;;4407709;32;20186;-63
2021/06/17 02:37:10;;;;;;;20.63;16.10;;;20.50;99.90;;;;;;4407031;32;20178;-61
2021/06/17 02:39:37;;;;;;;17.63;15.83;;;20.50;99.90;;;;;;4406453;32;20163;-62
2021/06/17 02:42:07;;;;;;;20.33;17.20;;;20.40;99.90;;;;;;4417710;32;20219;-61
2021/06/17 02:44:35;;;;;;;20.67;18.27;;;20.30;99.90;;;;;;4406288;32;20214;-60
2021/06/17 02:47:02;;;;;;;19.97;17.47;;;20.30;99.90;;;;;;4417214;32;20178;-60
2021/06/17 02:49:29;;;;;;;19.07;15.90;;;20.30;99.90;;;;;;4419583;32;20186;-63
2021/06/17 02:51:55;;;;;;;19.97;17.87;;;20.30;99.90;;;;;;4419649;32;20178;-63
2021/06/17 02:54:24;;;;;;;21.27;17.77;;;20.30;99.90;;;;;;4420841;32;20173;-61
2021/06/17 02:56:59;;;;;;;19.47;17.53;;;20.30;99.90;;;;;;4421837;32;20179;-62
2021/06/17 02:59:39;;;;;;;22.13;17.03;;;20.20;99.90;;;;;;4418960;32;20155;-61
2021/06/17 03:02:11;;;;;;;20.27;18.17;;;20.20;99.90;;;;;;4406107;32;20143;-63
2021/06/17 03:04:45;;;;;;;19.27;17.23;;;20.20;99.90;;;;;;4406564;32;20163;-62
2021/06/17 03:07:19;;;;;;;18.77;16.67;;;20.10;99.90;;;;;;4406056;32;20148;-63
2021/06/17 03:09:54;;;;;;;20.40;18.37;;;20.10;99.90;;;;;;4411971;32;20650;-62
2021/06/17 03:12:25;;;;;;;18.87;16.87;;;20.10;99.90;;;;;;4418190;32;20169;-62
2021/06/17 03:14:56;;;;;;;23.93;19.97;;;20.20;99.90;;;;;;4422280;32;20159;-61
2021/06/17 03:17:24;;;;;;;20.33;17.10;;;20.10;99.90;;;;;;4418305;32;20159;-63
2021/06/17 03:19:54;;;;;;;18.90;16.93;;;20.20;99.90;;;;;;4422789;32;20163;-61
2021/06/17 03:22:27;;;;;;;18.93;17.10;;;20.20;99.90;;;;;;4418388;32;20571;-60
2021/06/17 03:24:59;;;;;;;19.47;17.37;;;20.20;99.90;;;;;;4420953;32;20166;-61
2021/06/17 03:27:26;;;;;;;21.97;17.87;;;20.20;99.90;;;;;;4407170;32;20156;-60
2021/06/17 03:29:55;;;;;;;20.37;17.07;;;20.20;99.90;;;;;;4405658;32;20158;-61
2021/06/17 03:32:23;;;;;;;22.83;20.40;;;20.20;99.90;;;;;;4418936;32;20178;-61
2021/06/17 03:34:51;;;;;;;20.67;18.57;;;20.20;99.90;;;;;;4420812;32;20159;-62
2021/06/17 03:37:20;;;;;;;20.60;18.40;;;20.20;99.90;;;;;;4408811;32;20553;-62
2021/06/17 03:39:48;;;;;;;21.47;18.30;;;20.20;99.90;;;;;;4405696;32;20148;-62
2021/06/17 03:42:18;;;;;;;18.93;17.17;;;20.30;99.90;;;;;;4406621;32;20480;-62
2021/06/17 03:44:46;;;;;;;19.17;16.00;;;20.30;99.90;;;;;;4411763;32;20206;-62
2021/06/17 03:47:14;;;;;;;22.20;19.37;;;20.30;99.90;;;;;;4420786;32;20195;-62
2021/06/17 03:49:44;;;;;;;20.60;18.43;;;20.40;99.90;;;;;;4420350;32;20159;-62
2021/06/17 03:52:15;;;;;;;20.67;18.57;;;20.40;99.90;;;;;;4419182;32;20164;-63
2021/06/17 03:54:43;;;;;;;20.40;17.50;;;20.40;99.90;;;;;;4414286;32;20164;-61
2021/06/17 03:57:13;;;;;;;18.47;16.77;;;20.40;99.90;;;;;;4407161;32;20610;-60
2021/06/17 03:59:43;;;;;;;20.33;17.13;;;20.40;99.90;;;;;;4406140;32;20216;-61
2021/06/17 04:02:11;;;;;;;19.67;17.67;;;20.50;99.90;;;;;;4405775;32;20166;-60
2021/06/17 04:04:39;;;;;;;20.30;17.80;;;20.50;99.90;;;;;;4420912;32;20590;-61
2021/06/17 04:07:11;;;;;;;19.50;17.40;;;20.50;99.90;;;;;;4421514;32;20147;-60
2021/06/17 04:09:40;;;;;;;20.50;18.43;;;20.50;99.90;;;;;;4422584;32;20610;-62
2021/06/17 04:12:11;;;;;;;21.67;17.93;;;20.60;99.90;;;;;;4425407;32;20162;-62
2021/06/17 04:14:43;;;;;;;18.70;16.77;;;20.60;99.90;;;;;;4408893;32;20181;-61
2021/06/17 04:17:13;;;;;;;18.47;16.57;;;20.80;99.90;;;;;;4407691;32;20187;-60
2021/06/17 04:19:42;;;;;;;17.23;15.23;;;20.80;99.90;;;;;;4409073;32;20518;-61
2021/06/17 04:22:12;;;;;;;18.40;16.50;;;20.80;99.90;;;;;;4408284;32;20600;-62
2021/06/17 04:24:43;;;;;;;18.97;16.63;;;20.90;99.90;;;;;;4421983;32;20151;-61
2021/06/17 04:27:10;;;;;;;18.60;15.37;;;20.90;99.90;;;;;;4423380;32;20198;-61
2021/06/17 04:29:39;;;;;;;17.80;15.97;;;21.00;99.90;;;;;;4420782;32;20590;-61
2021/06/17 04:32:10;;;;;;;17.40;13.80;;;21.10;99.90;;;;;;4423791;32;20178;-60
2021/06/17 04:34:39;;;;;;;15.60;13.90;;;21.20;99.90;;;;;;4409824;32;20164;-60
2021/06/17 04:37:08;;;;;;;17.40;15.03;;;21.30;99.90;;;;;;4409787;32;20480;-61
2021/06/17 04:39:35;;;;;;;16.97;14.00;;;21.40;99.90;;;;;;4408407;32;20151;-62
2021/06/17 04:42:03;;;;;;;14.87;13.37;;;21.50;99.90;;;;;;4415404;32;20159;-62
2021/06/17 04:44:31;;;;;;;16.17;14.47;;;21.70;99.90;;;;;;4421284;32;20194;-62
2021/06/17 04:46:59;;;;;;;16.17;14.57;;;21.80;99.90;;;;;;4409354;32;20224;-61
2021/06/17 04:49:30;;;;;;;15.67;14.10;;;21.90;99.90;;;;;;4410114;32;20159;-61
2021/06/17 04:51:59;;;;;;;16.70;14.97;;;22.00;99.90;;;;;;4413849;32;20143;-61
2021/06/17 04:54:25;;;;;;;18.00;15.60;;;22.10;99.90;;;;;;4422046;32;20166;-62
2021/06/17 04:56:55;;;;;;;21.97;17.47;;;22.20;99.90;;;;;;4409629;32;20149;-62
2021/06/17 04:59:22;;;;;;;20.47;17.80;;;22.40;99.90;;;;;;4409412;32;20186;-62
2021/06/17 05:01:50;;;;;;;18.77;16.73;;;22.50;99.80;;;;;;4411919;32;20199;-62
2021/06/17 05:04:18;;;;;;;20.05;17.27;;;22.60;99.50;;;;;;4410657;32;20151;-62
2021/06/17 05:06:57;;;;;;;18.50;16.60;;;22.70;99.50;;;;;;4414648;32;20216;-61
2021/06/17 05:12:09;;;;;;;20.30;16.27;;;22.90;99.10;;;;;;4416774;32;20246;-62
2021/06/17 05:14:36;;;;;;;18.77;16.73;;;23.00;98.70;;;;;;4414712;32;20639;-62
2021/06/17 05:17:03;;;;;;;20.07;16.53;;;23.10;98.70;;;;;;4413182;32;20225;-61
2021/06/17 05:19:30;;;;;;;20.57;16.33;;;23.20;98.00;;;;;;4408785;32;20167;-61
2021/06/17 05:22:01;;;;;;;17.75;15.63;;;23.30;98.20;;;;;;4413326;32;20182;-61
2021/06/17 05:24:28;;;;;;;16.70;15.07;;;23.40;97.60;;;;;;4414505;32;20179;-62
2021/06/17 05:26:55;;;;;;;20.23;14.73;;;23.50;97.60;;;;;;4414573;32;20205;-62
2021/06/17 05:29:22;;;;;;;18.73;14.27;;;23.60;97.40;;;;;;4414459;32;20152;-61
2021/06/17 05:31:48;;;;;;;19.67;15.05;;;23.70;97.00;;;;;;4411136;32;20486;-63
2021/06/17 05:34:17;;;;;;;15.38;13.57;;;23.70;96.70;;;;;;4411381;32;20183;-63
2021/06/17 05:36:44;;;;;;;17.27;14.32;;;23.90;96.70;;;;;;4408843;32;20178;-61
2021/06/17 05:39:12;;;;;;;17.50;14.25;;;24.00;95.80;;;;;;4407477;32;20620;-63
2021/06/17 05:41:39;;;;;;;14.35;12.63;;;24.10;95.70;;;;;;4406089;32;20950;-61
2021/06/17 05:44:09;;;;;;;15.57;12.32;;;24.60;95.40;;;;;;4412718;32;20163;-61
2021/06/17 05:46:40;;;;;;;12.55;11.35;;;26.00;93.60;;;;;;4412506;32;20218;-62
2021/06/17 05:49:07;;;;;;;12.50;11.02;;;27.90;91.20;;;;;;4410973;32;20148;-61
2021/06/17 05:51:34;;;;;;;12.88;11.60;;;28.80;88.70;;;;;;4412616;32;20635;-60
2021/06/17 05:54:01;;;;;;;13.15;11.73;;;28.40;87.50;;;;;;4412686;32;20565;-61
2021/06/17 05:56:29;;;;;;;14.52;13.02;;;27.70;88.50;;;;;;4412900;32;20215;-61
2021/06/17 05:58:57;;;;;;;14.20;12.70;;;27.00;90.30;;;;;;4408521;32;20179;-61
2021/06/17 06:01:24;;;;;;;17.20;12.52;;;26.60;90.80;;;;;;4414028;32;20238;-60
2021/06/17 06:03:52;;;;;;;19.35;13.57;;;26.10;91.20;;;;;;4415885;32;20147;-61
2021/06/17 06:06:19;;;;;;;19.17;15.00;;;25.70;91.70;;;;;;4411348;32;20159;-60
2021/06/17 06:08:46;;;;;;;17.73;14.77;;;25.40;92.30;;;;;;4414535;32;20172;-61
2021/06/17 06:11:13;;;;;;;17.60;15.63;;;25.40;92.80;;;;;;4413962;32;20306;-60
2021/06/17 06:13:41;;;;;;;15.73;13.45;;;25.40;92.90;;;;;;4414460;32;20218;-61
2021/06/17 06:16:09;;;;;;;18.27;13.80;;;25.50;93.00;;;;;;4413008;32;20152;-61
2021/06/17 06:18:36;;;;;;;17.48;14.30;;;25.70;92.80;;;;;;4413219;32;20245;-62
2021/06/17 06:21:03;;;;;;;17.05;15.27;;;26.00;92.60;;;;;;4408884;32;20223;-61
2021/06/17 06:23:30;;;;;;;17.37;15.55;;;26.30;92.10;;;;;;4410880;32;20199;-62
2021/06/17 06:25:58;;;;;;;17.23;15.27;;;26.50;91.80;;;;;;4408761;32;20176;-61
2021/06/17 06:28:26;;;;;;;16.70;14.25;;;26.70;91.60;;;;;;4415651;32;20151;-62
2021/06/17 06:30:55;;;;;;;17.15;15.35;;;26.70;91.50;;;;;;4414667;32;20205;-60
2021/06/17 06:33:23;;;;;;;20.25;15.25;;;26.70;91.70;;;;;;4411693;32;20174;-60
2021/06/17 06:35:50;;;;;;;24.75;16.23;;;26.50;91.70;;;;;;4408984;32;20657;-60
2021/06/17 06:38:17;;;;;;;17.10;15.10;;;26.30;91.90;;;;;;4413349;32;20605;-61
2021/06/17 06:40:45;;;;;;;17.48;14.60;;;26.10;92.50;;;;;;4413947;32;20223;-61
2021/06/17 06:43:14;;;;;;;18.95;16.60;;;26.00;92.90;;;;;;4415797;32;20166;-61
2021/06/17 06:45:41;;;;;;;20.08;16.35;;;25.90;92.60;;;;;;4414231;32;20576;-61
2021/06/17 06:48:17;;;;;;;21.92;15.43;;;25.70;93.40;;;;;;4416395;32;20202;-62
2021/06/17 06:50:44;;;;;;;19.90;15.88;;;25.70;93.60;;;;;;4408608;32;20541;-61
2021/06/17 06:53:11;;;;;;;18.33;15.05;;;26.00;93.40;;;;;;4415507;32;20175;-62
2021/06/17 06:55:37;;;;;;;16.92;14.73;;;26.30;93.30;;;;;;4416424;32;20223;-62
2021/06/17 06:58:05;;;;;;;18.33;16.48;;;26.40;93.20;;;;;;4416935;32;20171;-61
2021/06/17 07:00:32;;;;;;;17.35;15.55;;;26.20;93.10;;;;;;4418439;32;20175;-62
2021/06/17 07:02:59;;;;;;;16.48;14.82;;;26.40;93.10;;;;;;4412798;32;20147;-62
2021/06/17 07:05:28;;;;;;;23.33;18.70;;;26.70;92.90;;;;;;4411743;32;20215;-61
2021/06/17 07:07:54;;;;;;;20.00;17.67;;;27.00;92.20;;;;;;4414565;32;20151;-60
2021/06/17 07:10:21;;;;;;;18.40;16.50;;;27.10;91.70;;;;;;4408003;32;20636;-60
2021/06/17 07:12:48;;;;;;;19.08;15.65;;;27.50;91.20;;;;;;4410944;32;20151;-61
2021/06/17 07:15:15;;;;;;;21.35;16.23;;;27.80;90.40;;;;;;4407742;32;20544;-60
2021/06/17 07:17:42;;;;;;;22.27;14.45;;;28.10;89.90;;;;;;4418338;32;20172;-60
2021/06/17 07:20:09;;;;;;;17.87;14.25;;;28.60;89.00;;;;;;4406271;32;20176;-60
2021/06/17 07:22:39;;;;;;;15.48;13.18;;;28.90;87.30;;;;;;4411161;32;20155;-61
2021/06/17 07:25:06;;;;;;;13.65;12.15;;;29.00;86.80;;;;;;4416309;32;20162;-59
2021/06/17 07:27:33;;;;;;;13.20;11.88;;;28.90;85.70;;;;;;4406731;32;20163;-60
2021/06/17 07:30:00;;;;;;;10.73;9.63;;;28.60;85.50;;;;;;4406188;32;20615;-61
2021/06/17 07:32:36;;;;;;;11.50;10.23;;;28.70;86.60;;;;;;4409155;32;20218;-61
2021/06/17 07:35:03;;;;;;;11.00;9.63;;;28.80;85.20;;;;;;4414314;32;20185;-61
2021/06/17 07:37:30;;;;;;;10.30;9.10;;;28.90;82.50;;;;;;4425733;32;20144;-62
2021/06/17 07:39:58;;;;;;;10.63;7.70;;;28.50;83.20;;;;;;4419115;32;20147;-62
2021/06/17 07:42:26;;;;;;;9.68;7.57;;;28.40;83.40;;;;;;4420358;32;20494;-61
2021/06/17 07:44:53;;;;;;;14.13;6.60;;;29.10;83.10;;;;;;4426333;32;20151;-60
2021/06/17 07:47:19;;;;;;;9.80;7.12;;;29.50;81.60;;;;;;4423154;32;20167;-60
2021/06/17 07:49:46;;;;;;;8.10;7.30;;;29.90;79.90;;;;;;4422958;32;20162;-61
2021/06/17 07:52:13;;;;;;;11.57;6.43;;;30.50;78.50;;;;;;4414119;32;20567;-62
2021/06/17 07:54:40;;;;;;;8.65;6.30;;;32.20;77.50;;;;;;4411910;32;20148;-63
2021/06/17 07:57:08;;;;;;;6.75;6.00;;;34.90;70.20;;;;;;4412401;32;20151;-64
2021/06/17 07:59:35;;;;;;;6.68;5.72;;;36.80;64.70;;;;;;4403002;32;20164;-63
2021/06/17 08:02:03;;;;;;;7.43;4.70;;;37.70;62.50;;;;;;4415676;32;20155;-63
2021/06/17 08:04:30;;;;;;;6.75;4.70;;;40.20;57.70;;;;;;4408006;32;20159;-61
2021/06/17 08:06:57;;;;;;;7.62;4.53;;;43.70;50.00;;;;;;4412242;32;20156;-61
2021/06/17 08:09:24;;;;;;;7.95;5.22;;;45.60;45.80;;;;;;4411284;32;20174;-61
2021/06/17 08:11:53;;;;;;;5.70;4.22;;;48.10;41.30;;;;;;4419615;32;20213;-63
2021/06/17 08:14:23;;;;;;;7.07;3.67;;;48.90;39.10;;;;;;4414744;32;20169;-62
2021/06/17 08:16:50;;;;;;;10.07;4.10;;;49.70;38.50;;;;;;4409962;32;20156;-61
2021/06/17 08:19:24;;;;;;;9.23;4.47;;;50.40;37.10;;;;;;4411248;32;20183;-62
2021/06/17 08:21:51;;;;;;;8.30;3.55;;;51.10;34.80;;;;;;4413026;32;20170;-61
2021/06/17 08:24:18;;;;;;;4.40;2.95;;;51.10;35.30;;;;;;4414251;32;20156;-62
2021/06/17 08:26:46;;;;;;;7.62;3.80;;;48.90;35.50;;;;;;4417122;32;20160;-63
2021/06/17 08:29:13;;;;;;;6.03;3.35;;;48.40;36.60;;;;;;4414302;32;20156;-61
2021/06/17 08:31:43;;;;;;;5.90;3.50;;;50.60;35.20;;;;;;4411163;32;20152;-63
2021/06/17 08:34:10;;;;;;;6.18;2.83;;;50.90;33.80;;;;;;4414904;32;20155;-63
2021/06/17 08:36:37;;;;;;;5.20;3.00;;;50.60;35.20;;;;;;4413913;32;20151;-62
2021/06/17 08:39:05;;;;;;;6.10;3.60;;;52.60;34.40;;;;;;4420994;32;20207;-62
2021/06/17 08:41:32;;;;;;;6.60;2.80;;;54.30;33.40;;;;;;4409919;32;20186;-62
2021/06/17 08:43:59;;;;;;;5.10;3.05;;;55.10;32.80;;;;;;4419511;32;20170;-62
2021/06/17 08:46:26;;;;;;;6.55;2.70;;;55.00;32.00;;;;;;4417870;32;20182;-62
2021/06/17 08:48:54;;;;;;;9.02;3.22;;;54.50;32.30;;;;;;4420877;32;20170;-63
2021/06/17 08:51:21;;;;;;;5.18;2.72;;;53.60;32.10;;;;;;4410720;32;20206;-63
2021/06/17 08:53:50;;;;;;;4.35;2.87;;;52.50;32.20;;;;;;4418786;32;20572;-63
2021/06/17 08:56:17;;;;;;;6.95;3.22;;;50.60;32.80;;;;;;4417943;32;20214;-62
2021/06/17 08:58:45;;;;;;;4.35;2.87;;;48.10;34.80;;;;;;4420504;32;20182;-61
2021/06/17 09:01:13;;;;;;;5.43;2.83;;;49.70;34.40;;;;;;4415959;32;20151;-63
2021/06/17 09:03:41;;;;;;;9.30;3.58;;;50.40;33.20;;;;;;4415366;32;20214;-62
2021/06/17 09:06:09;;;;;;;5.75;3.28;;;48.10;34.50;;;;;;4412407;32;20157;-61
2021/06/17 09:08:37;;;;;;;7.00;3.20;;;45.30;36.60;;;;;;4414165;32;20168;-62
2021/06/17 09:11:04;;;;;;;8.60;3.37;;;43.70;39.50;;;;;;4415014;32;20158;-61
2021/06/17 09:13:32;;;;;;;7.68;3.60;;;46.50;36.90;;;;;;4416750;32;20199;-63
2021/06/17 09:16:00;;;;;;;9.48;3.55;;;49.10;34.50;;;;;;4418839;32;20504;-60
2021/06/17 09:18:28;;;;;;;8.93;3.85;;;50.30;33.10;;;;;;4418150;32;20160;-62
2021/06/17 09:20:57;;;;;;;4.43;3.45;;;50.50;33.40;;;;;;4410772;32;20168;-62
2021/06/17 09:23:32;;;;;;;4.72;3.15;;;53.10;32.20;;;;;;4413832;32;20189;-63
2021/06/17 09:26:01;;;;;;;6.62;3.10;;;54.20;32.80;;;;;;4410292;32;20140;-62
2021/06/17 09:28:46;;;;;;;6.97;3.30;;;54.30;31.30;;;;;;4419052;32;20174;-62
2021/06/17 09:31:17;;;;;;;5.28;2.75;;;52.80;32.30;;;;;;4409325;32;20158;-62
2021/06/17 09:33:46;;;;;;;5.28;3.40;;;49.30;33.10;;;;;;4418017;32;20559;-62
2021/06/17 09:36:13;;;;;;;7.78;3.67;;;45.30;35.30;;;;;;4417568;32;20219;-62
2021/06/17 09:38:46;;;;;;;6.22;3.30;;;41.70;38.20;;;;;;4412596;32;20183;-63
2021/06/17 09:41:30;;;;;;;7.07;3.67;;;39.20;41.20;;;;;;4410210;32;20152;-60
2021/06/17 09:43:57;;;;;;;4.75;4.05;;;37.30;42.50;;;;;;4415677;32;20151;-60
2021/06/17 09:46:24;;;;;;;6.85;3.62;;;36.10;45.20;;;;;;4425662;32;20160;-60
2021/06/17 09:48:52;;;;;;;7.87;3.75;;;35.20;46.40;;;;;;4417780;32;20186;-62
2021/06/17 09:51:30;;;;;;;6.93;3.83;;;34.70;47.30;;;;;;4416967;32;20187;-63
2021/06/17 09:54:14;;;;;;;7.90;3.60;;;34.50;48.00;;;;;;4414910;32;20167;-61
2021/06/17 09:56:42;;;;;;;6.43;3.33;;;34.80;47.70;;;;;;4416334;32;20155;-60
2021/06/17 09:59:09;;;;;;;8.98;3.55;;;35.60;48.10;;;;;;4418497;32;20204;-61
2021/06/17 10:01:41;;;;;;;6.72;3.20;;;36.50;47.00;;;;;;4417831;32;20183;-60
2021/06/17 10:04:10;;;;;;;8.27;3.83;;;37.10;46.00;;;;;;4406420;32;20573;-61
2021/06/17 10:06:39;;;;;;;11.20;3.78;;;37.20;46.30;;;;;;4412428;32;20156;-61
2021/06/17 10:09:10;;;;;;;8.48;3.72;;;36.70;47.00;;;;;;4415182;32;20448;-61
2021/06/17 10:11:38;;;;;;;7.18;3.35;;;36.30;47.20;;;;;;4415424;32;20158;-62
2021/06/17 10:14:06;;;;;;;8.13;3.83;;;35.70;49.40;;;;;;4418167;32;20159;-62
2021/06/17 10:16:34;;;;;;;8.45;3.62;;;35.00;49.70;;;;;;4411372;32;20160;-62
2021/06/17 10:19:03;;;;;;;8.82;3.87;;;34.30;50.20;;;;;;4411299;32;20156;-63
2021/06/17 10:21:31;;;;;;;12.98;3.70;;;33.80;52.10;;;;;;4407552;32;20170;-63
2021/06/17 10:23:59;;;;;;;7.97;3.65;;;33.60;52.90;;;;;;4416412;32;20457;-63
2021/06/17 10:26:32;;;;;;;12.00;3.80;;;33.60;53.20;;;;;;4408951;32;20630;-63
2021/06/17 10:28:59;;;;;;;13.38;3.78;;;33.50;53.50;;;;;;4411800;32;20212;-61
2021/06/17 10:31:46;;;;;;;11.02;3.42;;;33.30;53.60;;;;;;4410179;32;20166;-61
2021/06/17 10:34:34;;;;;;;9.93;3.70;;;33.10;54.50;;;;;;4408289;32;20224;-62
2021/06/17 10:37:10;;;;;;;7.43;3.67;;;33.50;54.70;;;;;;4415223;32;20255;-61
2021/06/17 10:39:38;;;;;;;9.25;3.37;;;33.40;54.00;;;;;;4409712;32;20665;-62
2021/06/17 10:42:14;;;;;;;5.72;4.15;;;33.60;54.20;;;;;;4417729;32;20174;-62
2021/06/17 10:45:00;;;;;;;6.35;3.67;;;33.50;54.30;;;;;;4418018;32;20136;-61
2021/06/17 10:48:06;;;;;;;6.30;3.58;;;33.30;54.80;;;;;;4415051;32;20156;-61
2021/06/17 10:50:42;;;;;;;7.85;3.97;;;33.10;56.20;;;;;;4416115;32;20188;-61
2021/06/17 10:53:44;;;;;;;7.78;3.55;;;32.60;56.50;;;;;;4409629;32;20228;-62
2021/06/17 10:56:16;;;;;;;7.07;4.25;;;32.70;57.20;;;;;;4378024;32;20230;-62
2021/06/17 10:59:06;;;;;;;9.32;3.83;;;32.90;55.80;;;;;;4380841;32;20188;-61
2021/06/17 11:01:41;;;;;;;6.40;3.95;;;33.30;55.70;;;;;;4383040;32;20195;-61
2021/06/17 11:04:14;;;;;;;8.20;4.80;;;33.70;54.20;;;;;;4372732;32;20156;-62
2021/06/17 11:07:14;;;;;;;12.07;4.80;;;33.80;53.40;;;;;;4381577;32;20243;-62
2021/06/17 11:10:02;;;;;;;10.57;5.12;;;34.10;54.40;;;;;;4381228;32;20152;-62
2021/06/17 11:13:07;;;;;;;7.40;5.20;;;34.40;53.60;;;;;;4378342;32;20191;-61
2021/06/17 11:15:42;;;;;;;8.90;5.10;;;34.40;53.40;;;;;;4349324;32;20196;-63
2021/06/17 11:18:09;;;;;;;11.32;5.20;;;34.60;53.60;;;;;;4354116;33;20705;-62
2021/06/17 11:20:39;;;;;;;9.85;5.40;;;34.20;54.70;;;;;;4345118;33;20228;-62
2021/06/17 11:23:06;;;;;;;13.82;5.22;;;33.70;54.40;;;;;;4348515;32;20157;-61
2021/06/17 11:25:36;;;;;;;10.88;5.00;;;33.10;55.70;;;;;;4355675;32;20604;-63
2021/06/17 11:28:05;;;;;;;12.02;5.03;;;33.00;56.60;;;;;;4347099;32;20231;-62
2021/06/17 11:31:01;;;;;;;8.73;4.93;;;32.70;56.50;;;;;;4344747;32;20161;-63
2021/06/17 11:33:45;;;;;;;14.15;5.35;;;32.60;56.00;;;;;;4374801;32;88516;-62
2021/06/17 11:36:20;;;;;;;9.43;5.00;;;32.70;55.40;;;;;;4400247;32;20202;-61
2021/06/17 11:38:50;;;;;;;14.87;5.00;;;32.70;55.10;;;;;;4390161;32;20198;-62
2021/06/17 11:41:23;;;;;;;12.10;5.50;;;32.60;56.20;;;;;;4394543;32;20156;-63
2021/06/17 11:44:00;;;;;;;8.00;4.78;;;32.70;56.50;;;;;;4397809;32;20151;-63
2021/06/17 11:46:37;;;;;;;7.87;6.10;;;32.90;56.20;;;;;;4392316;32;20511;-61
2021/06/17 11:49:05;;;;;;;8.93;4.75;;;32.90;55.30;;;;;;4392295;32;20205;-62
2021/06/17 11:51:46;;;;;;;10.07;5.90;;;33.30;56.10;;;;;;4396296;32;20149;-63
2021/06/17 11:54:21;;;;;;;9.40;4.68;;;33.20;55.90;;;;;;4397385;32;20170;-61
2021/06/17 11:56:52;;;;;;;9.85;4.37;;;32.90;56.20;;;;;;4395227;32;20182;-62
2021/06/17 11:59:24;;;;;;;6.95;4.18;;;32.80;54.90;;;;;;4394423;32;20207;-63
2021/06/17 12:02:08;;;;;;;12.50;4.45;;;33.00;55.60;;;;;;4392331;32;20163;-62
2021/06/17 12:04:48;;;;;;;8.75;3.70;;;32.90;55.10;;;;;;4395044;32;20527;-61
2021/06/17 12:07:15;;;;;;;9.70;4.10;;;32.80;55.90;;;;;;4395407;32;20171;-61
2021/06/17 12:09:43;;;;;;;8.43;3.97;;;32.60;55.50;;;;;;4393806;32;22008;-61
2021/06/17 12:12:18;;;;;;;8.18;3.62;;;32.50;54.80;;;;;;4394718;32;20242;-61
2021/06/17 12:14:47;;;;;;;9.98;3.33;;;32.70;55.30;;;;;;4393736;32;20543;-62
2021/06/17 12:17:27;;;;;;;10.27;3.35;;;32.70;54.00;;;;;;4394171;32;20182;-63
2021/06/17 12:19:54;;;;;;;10.20;3.62;;;32.70;54.70;;;;;;4383512;32;20687;-61
2021/06/17 12:22:22;;;;;;;8.88;3.25;;;32.90;54.30;;;;;;4389421;32;20215;-63
2021/06/17 12:24:49;;;;;;;9.18;3.60;;;33.00;54.50;;;;;;4394600;32;20242;-61
2021/06/17 12:27:17;;;;;;;14.30;4.20;;;32.80;54.50;;;;;;4393797;32;20174;-63
2021/06/17 12:29:45;;;;;;;10.68;4.05;;;32.70;55.60;;;;;;4396007;32;20152;-62
2021/06/17 12:32:12;;;;;;;8.75;3.62;;;32.50;55.00;;;;;;4395763;32;20216;-61
2021/06/17 12:34:45;;;;;;;6.18;3.62;;;32.20;55.00;;;;;;4394551;32;20239;-62
2021/06/17 12:37:12;;;;;;;8.00;2.97;;;32.20;56.40;;;;;;4396751;32;20148;-62
2021/06/17 12:39:41;;;;;;;11.73;2.83;;;32.20;56.20;;;;;;4395904;32;20225;-62
2021/06/17 12:42:13;;;;;;;5.15;2.58;;;32.10;55.50;;;;;;4395870;32;20170;-61
2021/06/17 12:44:41;;;;;;;10.05;3.35;;;31.90;55.60;;;;;;4397411;32;20549;-63
2021/06/17 12:47:18;;;;;;;6.50;3.05;;;31.90;56.10;;;;;;4395855;32;20148;-61
2021/06/17 12:52:35;;;;;;;6.05;2.65;;;31.80;55.80;;;;;;4398641;32;20634;-63